createdAt,value
2019-04-14T00:00:38.306Z,3.60
2019-04-14T00:03:09.413Z,3.60
2019-04-14T00:05:38.818Z,3.60
2019-04-14T00:08:08.877Z,3.60
2019-04-14T00:10:38.454Z,3.60
2019-04-14T00:13:08.868Z,3.60
2019-04-14T00:15:42.720Z,3.50
2019-04-14T00:18:10.425Z,3.50
2019-04-14T00:20:40.456Z,3.50
2019-04-14T00:23:10.867Z,3.50
2019-04-14T00:25:41.215Z,3.50
2019-04-14T00:28:11.700Z,3.60
2019-04-14T00:30:41.177Z,3.60
2019-04-14T00:33:21.417Z,3.60
2019-04-14T00:35:55.926Z,3.60
2019-04-14T00:38:30.276Z,3.50
2019-04-14T00:41:05.612Z,3.50
2019-04-14T00:43:43.706Z,3.60
2019-04-14T00:46:21.221Z,3.60
2019-04-14T00:48:51.676Z,3.60
2019-04-14T00:51:22.094Z,3.60
2019-04-14T00:53:51.486Z,3.50
2019-04-14T00:56:21.487Z,3.50
2019-04-14T00:58:52.048Z,3.60
2019-04-14T01:01:21.903Z,3.60
2019-04-14T01:03:52.558Z,3.50
2019-04-14T01:06:22.971Z,3.60
2019-04-14T01:08:53.357Z,3.70
2019-04-14T01:11:22.868Z,3.70
2019-04-14T01:13:52.984Z,3.70
2019-04-14T01:16:24.902Z,3.70
2019-04-14T01:18:53.761Z,3.80
2019-04-14T01:21:24.242Z,3.80
2019-04-14T01:23:54.489Z,3.90
2019-04-14T01:26:24.647Z,3.90
2019-04-14T01:28:54.802Z,3.90
2019-04-14T01:31:25.114Z,3.90
2019-04-14T01:33:55.525Z,3.80
2019-04-14T01:36:25.565Z,3.80
2019-04-14T01:38:55.752Z,3.70
2019-04-14T01:41:26.088Z,3.70
2019-04-14T01:43:56.585Z,3.80
2019-04-14T01:46:28.434Z,3.70
2019-04-14T01:48:56.901Z,3.80
2019-04-14T01:51:33.552Z,3.90
2019-04-14T01:54:04.508Z,3.90
2019-04-14T01:56:52.101Z,3.90
2019-04-14T01:59:21.965Z,4.00
2019-04-14T02:01:54.259Z,4.00
2019-04-14T02:04:24.589Z,4.00
2019-04-14T02:06:55.120Z,4.10
2019-04-14T02:09:25.124Z,4.00
2019-04-14T02:11:55.207Z,4.00
2019-04-14T02:14:25.526Z,4.00
2019-04-14T02:16:57.828Z,3.90
2019-04-14T02:19:26.339Z,3.90
2019-04-14T02:21:56.332Z,3.90
2019-04-14T02:24:26.369Z,4.00
2019-04-14T02:26:56.857Z,4.00
2019-04-14T02:29:27.644Z,4.00
2019-04-14T02:32:30.267Z,3.90
2019-04-14T02:40:03.933Z,3.80
2019-04-14T02:42:40.293Z,3.70
2019-04-14T02:44:59.982Z,3.60
2019-04-14T02:50:01.786Z,3.60
2019-04-14T02:55:04.442Z,3.70
2019-04-14T02:57:30.369Z,3.80
2019-04-14T03:02:40.846Z,3.80
2019-04-14T03:05:01.827Z,3.80
2019-04-14T03:07:38.203Z,3.80
2019-04-14T03:10:10.989Z,3.80
2019-04-14T03:12:38.431Z,3.80
2019-04-14T03:15:07.289Z,3.80
2019-04-14T03:17:47.291Z,3.70
2019-04-14T03:20:32.129Z,3.70
2019-04-14T03:25:26.463Z,3.80
2019-04-14T03:27:58.429Z,3.80
2019-04-14T03:31:01.788Z,3.70
2019-04-14T03:38:14.617Z,3.60
2019-04-14T03:41:03.781Z,3.70
2019-04-14T03:43:25.260Z,3.70
2019-04-14T03:50:47.879Z,3.60
2019-04-14T03:53:21.419Z,3.70
2019-04-14T03:55:52.144Z,3.60
2019-04-14T03:58:16.026Z,3.60
2019-04-14T04:00:46.460Z,3.50
2019-04-14T04:03:15.977Z,3.50
2019-04-14T04:05:45.609Z,3.50
2019-04-14T04:08:15.790Z,3.60
2019-04-14T04:10:51.010Z,3.50
2019-04-14T04:13:21.583Z,3.50
2019-04-14T04:15:51.893Z,3.60
2019-04-14T04:18:26.585Z,3.60
2019-04-14T04:20:58.728Z,3.50
2019-04-14T04:23:33.495Z,3.60
2019-04-14T04:26:21.245Z,3.60
2019-04-14T04:28:52.234Z,3.50
2019-04-14T04:31:24.213Z,3.50
2019-04-14T04:33:58.643Z,3.50
2019-04-14T04:36:46.341Z,3.40
2019-04-14T04:39:17.404Z,3.50
2019-04-14T04:41:47.262Z,3.50
2019-04-14T04:44:17.927Z,3.40
2019-04-14T04:46:48.339Z,3.40
2019-04-14T04:49:21.767Z,3.50
2019-04-14T04:51:50.852Z,3.50
2019-04-14T04:54:21.066Z,3.50
2019-04-14T04:56:51.512Z,3.40
2019-04-14T04:59:21.293Z,3.30
2019-04-14T05:01:51.552Z,3.40
2019-04-14T05:04:22.013Z,3.40
2019-04-14T05:06:57.381Z,3.30
2019-04-14T05:09:33.832Z,3.30
2019-04-14T05:12:21.737Z,3.20
2019-04-14T05:14:52.784Z,3.20
2019-04-14T05:17:23.735Z,3.20
2019-04-14T05:19:54.020Z,3.30
2019-04-14T05:22:24.616Z,3.20
2019-04-14T05:24:55.032Z,3.30
2019-04-14T05:27:25.381Z,3.40
2019-04-14T05:29:55.837Z,3.30
2019-04-14T05:32:26.165Z,3.40
2019-04-14T05:34:56.530Z,3.40
2019-04-14T05:37:26.872Z,3.50
2019-04-14T05:39:56.977Z,3.40
2019-04-14T05:42:27.491Z,3.40
2019-04-14T05:44:57.865Z,3.30
2019-04-14T05:47:28.247Z,3.30
2019-04-14T05:49:59.157Z,3.40
2019-04-14T05:52:29.602Z,3.40
2019-04-14T05:55:00.051Z,3.40
2019-04-14T05:57:30.525Z,3.40
2019-04-14T06:00:00.045Z,3.40
2019-04-14T06:02:30.614Z,3.50
2019-04-14T06:05:01.516Z,3.60
2019-04-14T06:07:31.007Z,3.40
2019-04-14T06:10:00.306Z,3.50
2019-04-14T06:12:29.642Z,3.40
2019-04-14T06:14:59.021Z,3.40
2019-04-14T06:17:28.409Z,3.50
2019-04-14T06:19:57.786Z,3.60
2019-04-14T06:22:27.106Z,3.60
2019-04-14T06:24:56.413Z,3.70
2019-04-14T06:27:25.764Z,3.80
2019-04-14T06:29:56.701Z,4.00
2019-04-14T06:32:39.706Z,4.10
2019-04-14T06:35:10.794Z,4.20
2019-04-14T06:37:44.465Z,4.30
2019-04-14T06:40:13.775Z,4.40
2019-04-14T06:42:43.101Z,4.60
2019-04-14T06:45:12.558Z,4.70
2019-04-14T06:47:41.881Z,4.70
2019-04-14T06:50:11.390Z,4.80
2019-04-14T06:52:40.721Z,4.90
2019-04-14T06:55:10.093Z,4.80
2019-04-14T06:57:39.426Z,4.90
2019-04-14T07:00:09.080Z,5.00
2019-04-14T07:02:38.402Z,5.00
2019-04-14T07:05:07.946Z,5.20
2019-04-14T07:07:37.343Z,5.30
2019-04-14T07:10:08.141Z,5.40
2019-04-14T07:12:37.457Z,5.50
2019-04-14T07:15:07.917Z,5.60
2019-04-14T07:17:37.249Z,5.50
2019-04-14T07:20:07.026Z,5.50
2019-04-14T07:22:36.481Z,5.50
2019-04-14T07:25:06.529Z,5.50
2019-04-14T07:27:35.912Z,5.50
2019-04-14T07:30:10.621Z,5.50
2019-04-14T07:32:51.052Z,5.50
2019-04-14T07:35:25.748Z,5.50
2019-04-14T07:37:59.557Z,5.60
2019-04-14T07:40:46.988Z,5.50
2019-04-14T07:43:17.978Z,5.60
2019-04-14T07:45:48.929Z,5.50
2019-04-14T07:48:22.710Z,5.50
2019-04-14T07:50:53.740Z,5.30
2019-04-14T07:53:40.993Z,5.30
2019-04-14T07:56:26.923Z,5.40
2019-04-14T07:59:06.819Z,5.20
2019-04-14T08:01:40.691Z,5.20
2019-04-14T08:04:11.664Z,5.20
2019-04-14T08:06:42.621Z,5.20
2019-04-14T08:09:11.969Z,5.20
2019-04-14T08:11:41.346Z,5.30
2019-04-14T08:14:10.686Z,5.40
2019-04-14T08:16:40.150Z,5.40
2019-04-14T08:19:09.487Z,5.40
2019-04-14T08:21:38.800Z,5.40
2019-04-14T08:24:08.139Z,5.50
2019-04-14T08:26:37.437Z,5.50
2019-04-14T08:29:06.756Z,5.50
2019-04-14T08:31:36.096Z,5.40
2019-04-14T08:34:05.430Z,5.40
2019-04-14T08:36:34.837Z,5.40
2019-04-14T08:39:05.605Z,5.40
2019-04-14T08:41:36.798Z,5.60
2019-04-14T08:44:07.754Z,5.90
2019-04-14T08:46:54.762Z,6.00
2019-04-14T08:49:28.658Z,6.20
2019-04-14T08:52:02.332Z,6.50
2019-04-14T08:54:33.365Z,6.60
2019-04-14T08:57:04.330Z,6.60
2019-04-14T08:59:51.888Z,6.70
2019-04-14T09:02:37.633Z,6.70
2019-04-14T09:05:17.962Z,6.80
2019-04-14T09:07:57.451Z,7.00
2019-04-14T09:10:31.248Z,7.10
2019-04-14T09:13:00.569Z,7.10
2019-04-14T09:15:29.924Z,7.10
2019-04-14T09:17:59.272Z,7.20
2019-04-14T09:20:28.612Z,7.30
2019-04-14T09:22:57.945Z,7.50
2019-04-14T09:25:27.307Z,7.60
2019-04-14T09:27:56.865Z,7.70
2019-04-14T09:30:26.292Z,7.90
2019-04-14T09:32:55.620Z,7.80
2019-04-14T09:35:24.934Z,7.80
2019-04-14T09:37:54.260Z,7.70
2019-04-14T09:40:23.641Z,7.60
2019-04-14T09:42:52.985Z,7.60
2019-04-14T09:45:22.294Z,7.40
2019-04-14T09:47:51.782Z,7.30
2019-04-14T09:50:21.188Z,7.60
2019-04-14T09:52:50.489Z,7.60
2019-04-14T09:55:23.359Z,7.70
2019-04-14T09:57:52.171Z,8.00
2019-04-14T10:00:23.253Z,8.30
2019-04-14T10:02:52.600Z,8.40
2019-04-14T10:05:21.977Z,8.70
2019-04-14T10:07:51.393Z,8.80
2019-04-14T10:10:21.377Z,8.80
2019-04-14T10:12:50.864Z,8.90
2019-04-14T10:15:20.186Z,9.00
2019-04-14T10:17:49.502Z,9.10
2019-04-14T10:20:18.829Z,9.30
2019-04-14T10:22:48.148Z,9.70
2019-04-14T10:25:17.478Z,10.20
2019-04-14T10:27:46.982Z,10.40
2019-04-14T10:30:16.470Z,10.80
2019-04-14T10:32:45.807Z,11.00
2019-04-14T10:35:15.334Z,10.90
2019-04-14T10:37:44.709Z,10.90
2019-04-14T10:40:14.176Z,11.10
2019-04-14T10:42:43.486Z,11.10
2019-04-14T10:45:12.942Z,11.10
2019-04-14T10:47:42.292Z,10.90
2019-04-14T10:50:12.590Z,11.00
2019-04-14T10:52:41.977Z,10.80
2019-04-14T10:55:11.572Z,10.90
2019-04-14T10:57:40.958Z,11.30
2019-04-14T11:00:14.922Z,11.60
2019-04-14T11:02:45.117Z,11.60
2019-04-14T11:05:14.643Z,11.80
2019-04-14T11:07:44.017Z,12.30
2019-04-14T11:10:13.786Z,12.50
2019-04-14T11:12:43.210Z,12.60
2019-04-14T11:15:15.411Z,12.40
2019-04-14T11:17:43.861Z,12.20
2019-04-14T11:20:13.289Z,12.10
2019-04-14T11:22:42.596Z,11.70
2019-04-14T11:25:12.245Z,11.40
2019-04-14T11:27:41.608Z,11.20
2019-04-14T11:30:12.847Z,10.90
2019-04-14T11:32:50.428Z,11.00
2019-04-14T11:35:24.010Z,11.40
2019-04-14T11:38:00.917Z,11.40
2019-04-14T11:40:37.440Z,11.10
2019-04-14T11:43:06.755Z,11.00
2019-04-14T11:45:36.122Z,10.80
2019-04-14T11:48:05.550Z,10.70
2019-04-14T11:50:34.919Z,10.40
2019-04-14T11:53:05.584Z,10.30
2019-04-14T11:55:34.981Z,10.30
2019-04-14T11:58:04.448Z,10.40
2019-04-14T12:00:35.498Z,10.80
2019-04-14T12:03:09.928Z,10.80
2019-04-14T12:05:40.907Z,10.90
2019-04-14T12:08:17.840Z,11.30
2019-04-14T12:10:47.146Z,11.40
2019-04-14T12:13:16.492Z,11.30
2019-04-14T12:15:45.809Z,11.30
2019-04-14T12:18:15.131Z,11.00
2019-04-14T12:20:44.466Z,10.80
2019-04-14T12:23:16.042Z,10.50
2019-04-14T12:25:44.820Z,10.50
2019-04-14T12:28:14.149Z,10.50
2019-04-14T12:30:44.321Z,10.70
2019-04-14T12:33:13.813Z,10.60
2019-04-14T12:35:43.148Z,11.10
2019-04-14T12:38:13.809Z,11.10
2019-04-14T12:40:44.320Z,11.10
2019-04-14T12:43:27.732Z,11.10
2019-04-14T12:46:15.387Z,11.00
2019-04-14T12:48:58.425Z,11.20
2019-04-14T12:51:29.387Z,11.00
2019-04-14T12:53:58.737Z,10.90
2019-04-14T12:56:29.738Z,11.10
2019-04-14T12:59:00.814Z,11.50
2019-04-14T13:01:37.732Z,11.90
2019-04-14T13:04:07.066Z,12.40
2019-04-14T13:06:36.376Z,12.80
2019-04-14T13:09:07.064Z,13.00
2019-04-14T13:11:37.378Z,13.10
2019-04-14T13:14:06.791Z,13.40
2019-04-14T13:16:36.112Z,13.50
2019-04-14T13:19:05.440Z,13.40
2019-04-14T13:21:34.784Z,13.30
2019-04-14T13:24:04.586Z,12.90
2019-04-14T13:26:33.914Z,13.00
2019-04-14T13:29:03.330Z,13.10
2019-04-14T13:31:32.628Z,13.60
2019-04-14T13:34:01.986Z,14.30
2019-04-14T13:36:31.302Z,15.60
2019-04-14T13:39:00.676Z,16.30
2019-04-14T13:41:31.698Z,16.20
2019-04-14T13:44:01.050Z,15.60
2019-04-14T13:46:30.419Z,15.10
2019-04-14T13:49:00.726Z,14.40
2019-04-14T13:51:30.233Z,13.90
2019-04-14T13:53:59.567Z,13.70
2019-04-14T13:56:28.932Z,14.00
2019-04-14T13:58:58.263Z,14.60
2019-04-14T14:01:27.611Z,15.40
2019-04-14T14:03:57.001Z,16.10
2019-04-14T14:06:26.402Z,16.60
2019-04-14T14:08:55.705Z,16.80
2019-04-14T14:11:32.890Z,16.40
2019-04-14T14:14:06.796Z,16.10
2019-04-14T14:16:37.788Z,16.00
2019-04-14T14:19:14.641Z,15.70
2019-04-14T14:21:54.780Z,15.60
2019-04-14T14:24:25.821Z,15.10
2019-04-14T14:26:57.018Z,14.60
2019-04-14T14:29:26.427Z,14.20
2019-04-14T14:31:56.484Z,13.90
2019-04-14T14:34:25.913Z,13.50
2019-04-14T14:36:55.265Z,13.10
2019-04-14T14:39:24.581Z,12.70
2019-04-14T14:41:54.022Z,12.40
2019-04-14T14:44:24.966Z,12.20
2019-04-14T14:46:59.062Z,12.20
2019-04-14T14:49:35.819Z,12.20
2019-04-14T14:52:12.700Z,12.30
2019-04-14T14:54:42.026Z,12.70
2019-04-14T14:57:11.350Z,12.90
2019-04-14T14:59:40.676Z,13.00
2019-04-14T15:02:10.134Z,13.10
2019-04-14T15:04:39.479Z,13.40
2019-04-14T15:07:08.801Z,14.30
2019-04-14T15:09:38.296Z,14.90
2019-04-14T15:12:07.625Z,15.30
2019-04-14T15:14:36.953Z,15.10
2019-04-14T15:17:08.369Z,14.50
2019-04-14T15:19:37.333Z,14.10
2019-04-14T15:22:06.735Z,13.60
2019-04-14T15:24:36.142Z,13.20
2019-04-14T15:27:05.602Z,13.00
2019-04-14T15:29:35.033Z,12.60
2019-04-14T15:32:04.487Z,12.60
2019-04-14T15:34:33.839Z,12.50
2019-04-14T15:37:04.282Z,12.80
2019-04-14T15:39:33.648Z,13.60
2019-04-14T15:42:02.961Z,14.50
2019-04-14T15:44:32.302Z,14.90
2019-04-14T15:47:01.626Z,15.50
2019-04-14T15:49:31.033Z,15.50
2019-04-14T15:52:00.358Z,15.40
2019-04-14T15:54:29.708Z,15.20
2019-04-14T15:57:09.658Z,15.40
2019-04-14T15:59:40.634Z,15.20
2019-04-14T16:02:27.871Z,15.80
2019-04-14T16:05:12.511Z,16.50
2019-04-14T16:07:48.704Z,16.60
2019-04-14T16:10:19.712Z,16.10
2019-04-14T16:13:07.118Z,15.50
2019-04-14T16:15:44.232Z,14.90
2019-04-14T16:18:31.790Z,14.30
2019-04-14T16:21:02.075Z,13.80
2019-04-14T16:23:32.387Z,13.20
2019-04-14T16:26:19.696Z,12.80
2019-04-14T16:28:56.708Z,12.50
2019-04-14T16:31:44.178Z,12.20
2019-04-14T16:34:17.945Z,12.00
2019-04-14T16:36:48.964Z,11.90
2019-04-14T16:39:19.538Z,11.90
2019-04-14T16:41:48.950Z,11.80
2019-04-14T16:44:18.289Z,11.70
2019-04-14T16:46:47.933Z,11.70
2019-04-14T16:49:17.346Z,11.70
2019-04-14T16:51:51.549Z,11.60
2019-04-14T16:54:35.966Z,11.80
2019-04-14T16:57:06.933Z,11.90
2019-04-14T16:59:36.273Z,11.80
2019-04-14T17:02:10.982Z,11.70
2019-04-14T17:04:36.758Z,11.70
2019-04-14T17:07:06.076Z,11.80
2019-04-14T17:09:36.854Z,11.80
2019-04-14T17:12:07.818Z,11.70
2019-04-14T17:14:48.008Z,11.50
2019-04-14T17:17:35.524Z,11.40
2019-04-14T17:20:20.690Z,11.20
2019-04-14T17:22:54.483Z,10.90
2019-04-14T17:25:29.291Z,10.60
2019-04-14T17:28:06.674Z,10.40
2019-04-14T17:30:46.701Z,10.10
2019-04-14T17:33:23.518Z,10.00
2019-04-14T17:35:54.500Z,9.80
2019-04-14T17:38:34.387Z,9.80
2019-04-14T17:41:08.211Z,9.60
2019-04-14T17:43:51.196Z,9.50
2019-04-14T17:46:25.031Z,9.40
2019-04-14T17:49:04.549Z,9.30
2019-04-14T17:51:35.706Z,9.20
2019-04-14T17:54:06.638Z,9.20
2019-04-14T17:56:37.730Z,9.10
2019-04-14T17:59:08.740Z,9.00
2019-04-14T18:01:56.823Z,8.90
2019-04-14T18:04:39.861Z,8.80
2019-04-14T18:07:10.931Z,8.80
2019-04-14T18:09:41.895Z,8.60
2019-04-14T18:12:12.907Z,8.60
2019-04-14T18:15:00.056Z,8.50
2019-04-14T18:17:32.173Z,8.50
2019-04-14T18:20:03.147Z,8.40
2019-04-14T18:22:32.663Z,8.40
2019-04-14T18:25:02.058Z,8.30
2019-04-14T18:27:33.509Z,8.30
2019-04-14T18:30:07.545Z,8.30
2019-04-14T18:32:44.308Z,8.30
2019-04-14T18:35:18.317Z,8.20
2019-04-14T18:38:05.350Z,8.10
2019-04-14T18:40:36.314Z,8.10
2019-04-14T18:43:13.130Z,8.00
2019-04-14T18:45:47.131Z,7.90
2019-04-14T18:48:34.631Z,7.90
2019-04-14T18:51:20.742Z,7.80
2019-04-14T18:53:54.808Z,7.80
2019-04-14T18:56:28.463Z,7.70
2019-04-14T18:58:59.953Z,7.70
2019-04-14T19:01:31.196Z,7.70
2019-04-14T19:04:02.261Z,7.70
2019-04-14T19:06:32.386Z,7.70
2019-04-14T19:09:01.758Z,7.70
2019-04-14T19:11:34.712Z,7.60
2019-04-14T19:14:05.631Z,7.60
2019-04-14T19:16:40.168Z,7.60
2019-04-14T19:19:11.175Z,7.60
2019-04-14T19:21:41.640Z,7.50
2019-04-14T19:24:11.143Z,7.40
2019-04-14T19:26:40.562Z,7.40
2019-04-14T19:29:09.948Z,7.30
2019-04-14T19:31:39.274Z,7.30
2019-04-14T19:34:08.677Z,7.30
2019-04-14T19:36:38.039Z,7.20
2019-04-14T19:39:10.370Z,7.20
2019-04-14T19:41:40.204Z,7.20
2019-04-14T19:44:09.503Z,7.10
2019-04-14T19:46:38.913Z,7.10
2019-04-14T19:49:08.301Z,7.10
2019-04-14T19:51:37.654Z,7.00
2019-04-14T19:54:07.148Z,7.00
2019-04-14T19:56:36.480Z,7.00
2019-04-14T19:59:05.881Z,6.90
2019-04-14T20:01:35.213Z,6.90
2019-04-14T20:04:04.596Z,6.80
2019-04-14T20:06:34.035Z,6.80
2019-04-14T20:09:05.077Z,6.70
2019-04-14T20:11:36.238Z,6.70
2019-04-14T20:14:05.802Z,6.70
2019-04-14T20:16:42.703Z,6.70
2019-04-14T20:19:13.715Z,6.80
2019-04-14T20:21:44.981Z,6.80
2019-04-14T20:24:21.923Z,6.80
2019-04-14T20:26:55.533Z,6.80
2019-04-14T20:29:32.788Z,6.70
2019-04-14T20:32:03.839Z,6.70
2019-04-14T20:34:33.171Z,6.70
2019-04-14T20:37:02.533Z,6.60
2019-04-14T20:39:33.193Z,6.70
2019-04-14T20:42:02.523Z,6.60
2019-04-14T20:44:31.914Z,6.60
2019-04-14T20:47:01.276Z,6.60
2019-04-14T20:49:30.617Z,6.60
2019-04-14T20:51:59.935Z,6.60
2019-04-14T20:54:29.286Z,6.50
2019-04-14T20:56:58.621Z,6.50
2019-04-14T20:59:27.962Z,6.40
2019-04-14T21:02:01.902Z,6.40
2019-04-14T21:04:32.874Z,6.30
2019-04-14T21:07:20.235Z,6.20
2019-04-14T21:09:54.012Z,6.20
2019-04-14T21:12:36.945Z,6.10
2019-04-14T21:15:08.572Z,6.00
2019-04-14T21:17:54.906Z,5.90
2019-04-14T21:20:41.957Z,5.80
2019-04-14T21:23:12.929Z,5.80
2019-04-14T21:26:00.520Z,5.80
2019-04-14T21:28:25.802Z,5.70
2019-04-14T21:31:03.011Z,5.60
2019-04-14T21:33:49.337Z,5.50
2019-04-14T21:36:38.403Z,5.50
2019-04-14T21:39:12.634Z,5.50
2019-04-14T21:41:43.648Z,5.50
2019-04-14T21:44:13.003Z,5.40
2019-04-14T21:46:42.401Z,5.40
2019-04-14T21:49:11.733Z,5.40
2019-04-14T21:51:51.946Z,5.40
2019-04-14T21:54:21.642Z,5.40
2019-04-14T21:57:08.985Z,5.40
2019-04-14T21:59:56.180Z,5.30
2019-04-14T22:02:43.869Z,5.20
2019-04-14T22:05:20.705Z,5.10
2019-04-14T22:08:20.625Z,5.00
2019-04-14T22:10:54.232Z,4.90
2019-04-14T22:13:23.955Z,4.80
2019-04-14T22:15:53.363Z,4.80
2019-04-14T22:18:22.689Z,4.70
2019-04-14T22:20:52.084Z,4.70
2019-04-14T22:23:21.409Z,4.60
2019-04-14T22:25:50.729Z,4.50
2019-04-14T22:28:20.039Z,4.30
2019-04-14T22:30:49.363Z,4.30
2019-04-14T22:33:18.679Z,4.30
2019-04-14T22:35:47.984Z,4.30
2019-04-14T22:38:17.350Z,4.20
2019-04-14T22:40:46.669Z,4.10
2019-04-14T22:43:15.985Z,4.10
2019-04-14T22:45:45.374Z,4.10
2019-04-14T22:48:14.690Z,4.10
2019-04-14T22:50:44.100Z,4.10
2019-04-14T22:53:13.454Z,4.10
2019-04-14T22:55:42.760Z,4.10
2019-04-14T22:58:12.081Z,4.10
2019-04-14T23:00:52.056Z,4.20
2019-04-14T23:03:30.721Z,4.10
2019-04-14T23:06:05.107Z,4.10
2019-04-14T23:08:36.119Z,4.10
2019-04-14T23:11:23.945Z,4.10
2019-04-14T23:13:57.393Z,4.10
2019-04-14T23:16:27.584Z,4.10
2019-04-14T23:19:13.386Z,4.10
2019-04-14T23:21:47.068Z,4.10
2019-04-14T23:24:18.033Z,4.10
2019-04-14T23:26:52.928Z,4.10
2019-04-14T23:29:18.477Z,4.00
2019-04-14T23:31:47.966Z,4.10
2019-04-14T23:34:17.482Z,4.10
2019-04-14T23:36:46.860Z,4.10
2019-04-14T23:39:16.180Z,4.10
2019-04-14T23:41:45.477Z,4.10
2019-04-14T23:44:14.946Z,4.10
2019-04-14T23:46:44.250Z,4.00
2019-04-14T23:49:13.557Z,4.00
2019-04-14T23:51:42.864Z,4.00
2019-04-14T23:54:12.171Z,4.00
2019-04-14T23:56:41.634Z,4.00
2019-04-14T23:59:21.280Z,3.90
